Time;durP1;ratioP1;P1;durP2;ratioP2;P2;SDS_P1;SDS_P2;PMS_P1;PMS_P2;Temp;Humidity;BMP_temperature;BMP_pressure;BME280_temperature;BME280_humidity;BME280_pressure;Samples;Min_cycle;Max_cycle;Signal;HPM_P1;HPM_P2
2023/10/12 00:01:59;;;;;;;19.50;10.80;;;;;;;;;;5067646;28;20024;-80
2023/10/12 00:04:50;;;;;;;21.42;10.75;;;;;;;;;;5064808;28;20041;-79
2023/10/12 00:07:16;;;;;;;21.40;10.30;;;;;;;;;;5066416;28;20029;-80
2023/10/12 00:09:48;;;;;;;19.48;10.52;;;;;;;;;;5066987;28;20626;-80
2023/10/12 00:12:23;;;;;;;21.88;10.93;;;;;;;;;;5065953;28;20495;-86
2023/10/12 00:14:49;;;;;;;18.15;10.90;;;;;;;;;;5040089;28;20688;-82
2023/10/12 00:17:17;;;;;;;18.75;10.13;;;;;;;;;;5036940;28;20028;-80
2023/10/12 00:19:42;;;;;;;15.35;9.95;;;;;;;;;;5034345;28;21019;-85
2023/10/12 00:22:11;;;;;;;17.58;10.55;;;;;;;;;;5037293;28;20021;-85
2023/10/12 00:24:40;;;;;;;17.95;10.95;;;;;;;;;;5053434;28;20037;-84
2023/10/12 00:27:09;;;;;;;20.63;10.65;;;;;;;;;;5037490;28;20029;-82
2023/10/12 00:29:39;;;;;;;19.30;10.73;;;;;;;;;;5053257;28;20040;-85
2023/10/12 00:32:06;;;;;;;16.98;11.02;;;;;;;;;;5055134;28;20044;-85
2023/10/12 00:34:37;;;;;;;21.83;10.98;;;;;;;;;;5055320;28;20032;-85
2023/10/12 00:37:03;;;;;;;16.08;10.65;;;;;;;;;;5039517;28;20037;-84
2023/10/12 00:39:44;;;;;;;16.23;10.65;;;;;;;;;;5058429;28;20074;-81
2023/10/12 00:42:10;;;;;;;16.10;10.95;;;;;;;;;;5054483;28;20621;-84
2023/10/12 00:44:40;;;;;;;18.25;11.23;;;;;;;;;;5061512;28;20377;-84
2023/10/12 00:47:12;;;;;;;17.58;11.32;;;;;;;;;;5044585;28;20016;-80
2023/10/12 00:49:47;;;;;;;20.05;11.55;;;;;;;;;;5063538;28;20032;-79
2023/10/12 00:52:22;;;;;;;21.35;11.00;;;;;;;;;;5059534;28;20052;-80
2023/10/12 00:54:55;;;;;;;19.10;11.40;;;;;;;;;;5065059;28;20103;-77
2023/10/12 00:57:22;;;;;;;22.73;11.88;;;;;;;;;;5065842;28;20029;-76
2023/10/12 00:59:47;;;;;;;19.70;11.25;;;;;;;;;;5064921;28;20643;-76
2023/10/12 01:02:15;;;;;;;19.88;11.18;;;;;;;;;;5058162;28;20081;-80
2023/10/12 01:04:53;;;;;;;20.15;12.50;;;;;;;;;;5062731;28;20498;-76
2023/10/12 01:07:25;;;;;;;19.83;11.57;;;;;;;;;;5062100;28;20025;-76
2023/10/12 01:10:03;;;;;;;18.67;11.30;;;;;;;;;;5042433;28;20431;-79
2023/10/12 01:12:31;;;;;;;19.13;10.98;;;;;;;;;;5062062;28;20086;-79
2023/10/12 01:14:57;;;;;;;25.50;12.27;;;;;;;;;;5056513;28;20533;-79
2023/10/12 01:17:29;;;;;;;21.48;12.45;;;;;;;;;;5061840;28;20028;-79
2023/10/12 01:19:57;;;;;;;19.77;11.85;;;;;;;;;;5051446;28;20039;-79
2023/10/12 01:22:25;;;;;;;16.65;11.50;;;;;;;;;;5055508;28;20037;-79
2023/10/12 01:27:21;;;;;;;19.20;12.10;;;;;;;;;;5054260;28;20031;-80
2023/10/12 01:29:46;;;;;;;19.75;11.35;;;;;;;;;;5035959;28;20059;-79
2023/10/12 01:34:38;;;;;;;17.10;11.23;;;;;;;;;;5054224;28;20463;-79
2023/10/12 01:39:56;;;;;;;17.58;11.73;;;;;;;;;;5059457;28;20115;-79
2023/10/12 01:42:25;;;;;;;19.73;12.32;;;;;;;;;;5055471;28;20131;-79
2023/10/12 01:44:51;;;;;;;18.30;11.65;;;;;;;;;;5038843;28;20039;-79
2023/10/12 01:47:16;;;;;;;18.98;12.07;;;;;;;;;;5060463;28;20028;-78
2023/10/12 01:49:45;;;;;;;22.13;12.43;;;;;;;;;;5062024;28;20103;-79
2023/10/12 01:52:11;;;;;;;18.55;12.70;;;;;;;;;;5053990;28;20031;-79
2023/10/12 01:54:42;;;;;;;17.52;12.05;;;;;;;;;;5061621;28;20025;-79
2023/10/12 01:57:09;;;;;;;20.77;12.70;;;;;;;;;;5039438;28;20465;-79
2023/10/12 01:59:34;;;;;;;21.20;12.40;;;;;;;;;;5058307;28;20048;-79
2023/10/12 02:02:07;;;;;;;20.58;12.73;;;;;;;;;;5044221;28;20105;-79
2023/10/12 02:04:39;;;;;;;20.73;12.35;;;;;;;;;;5059064;28;20028;-79
2023/10/12 02:07:09;;;;;;;18.77;10.32;;;;;;;;;;5064711;28;20028;-79
2023/10/12 02:09:34;;;;;;;19.13;11.73;;;;;;;;;;5046700;28;20032;-79
2023/10/12 02:12:09;;;;;;;19.77;12.13;;;;;;;;;;5059885;28;20016;-79
2023/10/12 02:14:39;;;;;;;15.43;10.65;;;;;;;;;;5065156;28;20113;-78
2023/10/12 02:17:05;;;;;;;17.95;11.93;;;;;;;;;;5045105;28;20159;-78
2023/10/12 02:19:33;;;;;;;18.90;11.57;;;;;;;;;;5060374;28;20035;-78
2023/10/12 02:22:01;;;;;;;12.82;8.80;;;;;;;;;;5058933;28;20032;-79
2023/10/12 02:24:27;;;;;;;16.05;10.02;;;;;;;;;;5056800;28;20029;-78
2023/10/12 02:26:52;;;;;;;14.18;10.15;;;;;;;;;;5055877;28;20399;-78
2023/10/12 02:29:18;;;;;;;17.83;11.38;;;;;;;;;;5058289;28;20037;-78
2023/10/12 02:31:56;;;;;;;17.98;11.70;;;;;;;;;;5056707;28;20416;-79
2023/10/12 02:34:27;;;;;;;17.02;10.85;;;;;;;;;;5058490;28;20043;-78
2023/10/12 02:37:16;;;;;;;16.20;10.68;;;;;;;;;;5040208;28;20553;-79
2023/10/12 02:39:42;;;;;;;21.67;11.40;;;;;;;;;;5054715;28;20028;-78
2023/10/12 02:44:42;;;;;;;;;;;;;;;;;;5060544;28;20034;-79
2023/10/12 02:47:18;;;;;;;12.75;9.80;;;;;;;;;;5058184;28;19913;-78
2023/10/12 02:49:45;;;;;;;16.33;10.30;;;;;;;;;;5059161;28;20104;-78
2023/10/12 02:52:14;;;;;;;18.13;10.40;;;;;;;;;;5059791;28;20033;-79
2023/10/12 02:54:50;;;;;;;16.73;9.95;;;;;;;;;;5042499;28;20025;-79
2023/10/12 02:57:31;;;;;;;15.02;8.90;;;;;;;;;;5056561;28;20597;-79
2023/10/12 02:59:57;;;;;;;14.40;9.07;;;;;;;;;;5059753;28;20028;-79
2023/10/12 03:02:34;;;;;;;13.13;9.10;;;;;;;;;;5057706;28;20107;-78
2023/10/12 03:05:06;;;;;;;15.63;9.55;;;;;;;;;;5042554;28;20024;-79
2023/10/12 03:07:31;;;;;;;13.38;9.05;;;;;;;;;;5059102;28;20448;-78
2023/10/12 03:10:05;;;;;;;13.65;7.85;;;;;;;;;;5060028;28;20111;-79
2023/10/12 03:12:35;;;;;;;14.85;10.10;;;;;;;;;;5043434;28;20036;-79
2023/10/12 03:15:12;;;;;;;16.38;10.63;;;;;;;;;;5056115;28;20032;-78
2023/10/12 03:17:42;;;;;;;16.60;9.40;;;;;;;;;;5053769;28;20115;-79
2023/10/12 03:20:22;;;;;;;13.60;9.15;;;;;;;;;;5056253;28;20043;-78
2023/10/12 03:22:59;;;;;;;15.48;9.75;;;;;;;;;;5039178;28;20548;-79
2023/10/12 03:25:45;;;;;;;18.02;11.85;;;;;;;;;;5056266;28;20119;-78
2023/10/12 03:28:30;;;;;;;14.23;10.50;;;;;;;;;;5057998;28;20016;-79
2023/10/12 03:33:55;;;;;;;14.48;9.32;;;;;;;;;;5051163;28;20523;-78
2023/10/12 03:36:32;;;;;;;15.55;10.20;;;;;;;;;;5037745;28;20043;-78
2023/10/12 03:44:49;;;;;;;20.58;12.13;;;;;;;;;;5001161;28;20494;-78
2023/10/12 03:50:10;;;;;;;17.48;11.05;;;;;;;;;;5059544;28;20123;-75
2023/10/12 03:52:42;;;;;;;20.67;11.30;;;;;;;;;;5055471;28;20043;-80
2023/10/12 03:57:44;;;;;;;16.48;11.50;;;;;;;;;;5061672;28;20824;-85
2023/10/12 04:08:38;;;;;;;21.88;13.10;;;;;;;;;;5057749;28;20112;-75
2023/10/12 04:14:17;;;;;;;16.67;12.02;;;;;;;;;;5055887;28;20119;-77
2023/10/12 04:18:42;;;;;;;19.73;13.77;;;;;;;;;;5054616;28;20141;-76
2023/10/12 04:21:15;;;;;;;18.10;12.95;;;;;;;;;;5040267;28;21474;-84
2023/10/12 04:23:48;;;;;;;23.13;15.32;;;;;;;;;;5056702;28;20066;-84
2023/10/12 04:29:13;;;;;;;19.98;14.52;;;;;;;;;;5060449;28;20082;-84
2023/10/12 04:34:08;;;;;;;21.23;15.43;;;;;;;;;;5060658;28;20054;-85
2023/10/12 04:36:52;;;;;;;20.20;15.05;;;;;;;;;;5058168;28;20054;-85
2023/10/12 04:39:24;;;;;;;22.05;16.92;;;;;;;;;;5056054;28;20021;-84
2023/10/12 04:47:07;;;;;;;18.92;15.05;;;;;;;;;;5063650;28;20024;-75
2023/10/12 04:52:16;;;;;;;22.23;15.43;;;;;;;;;;5054274;28;20052;-76
2023/10/12 04:57:33;;;;;;;18.90;13.93;;;;;;;;;;5054944;28;20396;-76
2023/10/12 05:07:57;;;;;;;22.10;14.15;;;;;;;;;;5055258;28;20515;-75
2023/10/12 05:10:32;;;;;;;20.08;12.60;;;;;;;;;;5063522;28;20036;-78
2023/10/12 05:13:10;;;;;;;18.13;13.73;;;;;;;;;;5060174;28;20028;-79
2023/10/12 05:18:20;;;;;;;19.08;12.55;;;;;;;;;;5060196;28;20104;-79
2023/10/12 05:20:45;;;;;;;19.83;13.13;;;;;;;;;;5060157;28;20593;-79
2023/10/12 05:23:12;;;;;;;19.27;13.98;;;;;;;;;;5049089;28;20088;-79
2023/10/12 05:25:53;;;;;;;17.13;12.00;;;;;;;;;;5062639;28;20048;-78
2023/10/12 05:28:27;;;;;;;33.35;13.55;;;;;;;;;;5067445;28;20094;-78
2023/10/12 05:30:59;;;;;;;18.67;12.75;;;;;;;;;;5065847;28;20434;-78
2023/10/12 05:33:38;;;;;;;19.95;14.40;;;;;;;;;;5060876;28;20461;-79
2023/10/12 05:36:11;;;;;;;21.15;16.63;;;;;;;;;;5048266;28;20102;-78
2023/10/12 05:38:49;;;;;;;20.73;15.18;;;;;;;;;;5064622;28;20468;-79
2023/10/12 05:41:34;;;;;;;19.73;15.35;;;;;;;;;;5059773;28;20099;-79
2023/10/12 05:44:04;;;;;;;18.48;14.45;;;;;;;;;;5059972;28;20025;-78
2023/10/12 05:46:33;;;;;;;17.98;14.20;;;;;;;;;;5058702;28;20013;-78
2023/10/12 05:48:59;;;;;;;20.92;15.18;;;;;;;;;;5056217;28;20101;-78
2023/10/12 05:51:24;;;;;;;16.60;13.90;;;;;;;;;;5056541;28;20032;-78
2023/10/12 05:54:02;;;;;;;20.17;13.80;;;;;;;;;;5061396;28;20078;-78
2023/10/12 05:56:29;;;;;;;20.60;15.20;;;;;;;;;;5041805;28;20032;-78
2023/10/12 05:58:55;;;;;;;20.52;15.40;;;;;;;;;;5059740;28;20033;-78
2023/10/12 06:01:53;;;;;;;18.77;14.98;;;;;;;;;;5067266;28;20032;-78
2023/10/12 06:04:15;;;;;;;21.70;15.27;;;;;;;;;;5068237;28;20040;-78
2023/10/12 06:06:44;;;;;;;19.65;14.10;;;;;;;;;;5064934;28;20024;-78
2023/10/12 06:09:20;;;;;;;17.00;12.70;;;;;;;;;;5066218;28;20117;-78
2023/10/12 06:11:47;;;;;;;19.17;13.38;;;;;;;;;;5070851;28;20032;-78
2023/10/12 06:14:20;;;;;;;18.30;13.45;;;;;;;;;;5062883;28;20526;-78
2023/10/12 06:16:54;;;;;;;20.25;14.15;;;;;;;;;;5062867;28;20119;-78
2023/10/12 06:19:26;;;;;;;18.20;14.05;;;;;;;;;;5061106;28;20476;-78
2023/10/12 06:21:52;;;;;;;19.77;13.50;;;;;;;;;;5042792;28;20435;-84
2023/10/12 06:24:33;;;;;;;18.05;14.18;;;;;;;;;;5048368;28;20380;-85
2023/10/12 06:26:59;;;;;;;20.88;14.13;;;;;;;;;;5044937;28;20029;-84
2023/10/12 06:29:26;;;;;;;18.63;14.63;;;;;;;;;;5064022;28;20024;-84
2023/10/12 06:31:54;;;;;;;21.30;14.30;;;;;;;;;;5054470;28;20102;-85
2023/10/12 06:34:23;;;;;;;18.55;13.70;;;;;;;;;;5066235;28;20103;-83
2023/10/12 06:36:57;;;;;;;20.13;13.98;;;;;;;;;;5067964;28;20033;-83
2023/10/12 06:44:27;;;;;;;20.80;14.32;;;;;;;;;;5072877;28;20048;-85
2023/10/12 06:46:54;;;;;;;21.67;15.32;;;;;;;;;;5071283;28;20636;-82
2023/10/12 06:49:28;;;;;;;21.33;15.27;;;;;;;;;;5072453;28;20032;-85
2023/10/12 06:52:03;;;;;;;23.52;15.52;;;;;;;;;;5069123;28;20029;-82
2023/10/12 06:54:49;;;;;;;14.73;12.48;;;;;;;;;;5065376;28;20093;-80
2023/10/12 06:59:52;;;;;;;19.90;14.43;;;;;;;;;;5071375;28;20053;-83
2023/10/12 07:02:24;;;;;;;24.38;15.10;;;;;;;;;;5053371;28;20519;-84
2023/10/12 07:04:54;;;;;;;16.95;13.43;;;;;;;;;;5073696;28;20115;-85
2023/10/12 07:07:58;;;;;;;19.42;14.02;;;;;;;;;;5059756;28;20028;-81
2023/10/12 07:10:24;;;;;;;18.65;13.13;;;;;;;;;;5057772;28;20090;-84
2023/10/12 07:12:49;;;;;;;19.35;12.65;;;;;;;;;;5062101;28;20118;-85
2023/10/12 07:15:21;;;;;;;19.67;13.70;;;;;;;;;;5049106;28;20467;-85
2023/10/12 07:17:50;;;;;;;18.08;13.32;;;;;;;;;;5061396;28;20099;-84
2023/10/12 07:22:57;;;;;;;17.40;12.07;;;;;;;;;;5064428;28;20032;-85
2023/10/12 07:25:26;;;;;;;18.13;12.23;;;;;;;;;;5065869;28;20049;-81
2023/10/12 07:27:58;;;;;;;14.77;11.52;;;;;;;;;;5060499;28;20494;-84
2023/10/12 07:30:33;;;;;;;17.98;11.88;;;;;;;;;;5043972;28;20054;-78
2023/10/12 07:33:05;;;;;;;17.42;11.50;;;;;;;;;;5064523;28;20037;-78
2023/10/12 07:35:42;;;;;;;15.77;11.10;;;;;;;;;;5053743;28;20175;-78
2023/10/12 07:38:13;;;;;;;16.63;10.63;;;;;;;;;;5063896;28;20028;-78
2023/10/12 07:43:20;;;;;;;16.55;11.02;;;;;;;;;;5061945;28;20496;-78
2023/10/12 07:45:48;;;;;;;15.73;11.30;;;;;;;;;;5072414;28;20028;-78
2023/10/12 07:48:29;;;;;;;17.65;11.40;;;;;;;;;;5066518;28;20150;-78
2023/10/12 07:50:55;;;;;;;17.15;10.73;;;;;;;;;;5064129;28;20040;-78
2023/10/12 07:53:23;;;;;;;17.25;11.20;;;;;;;;;;5055719;28;20039;-78
2023/10/12 07:56:00;;;;;;;15.70;9.52;;;;;;;;;;5065443;28;20078;-78
2023/10/12 07:58:29;;;;;;;17.80;10.68;;;;;;;;;;5050529;28;20147;-78
2023/10/12 08:03:58;;;;;;;16.38;10.93;;;;;;;;;;5027855;28;20101;-78
2023/10/12 08:06:45;;;;;;;12.85;9.95;;;;;;;;;;5057363;28;20040;-78
2023/10/12 08:09:21;;;;;;;16.15;9.40;;;;;;;;;;5066111;28;20044;-78
2023/10/12 08:11:46;;;;;;;18.98;10.45;;;;;;;;;;5060508;28;20087;-79
2023/10/12 08:19:55;;;;;;;13.25;8.82;;;;;;;;;;5068856;28;20456;-79
2023/10/12 08:22:26;;;;;;;16.45;9.23;;;;;;;;;;5064261;28;20025;-79
2023/10/12 08:24:58;;;;;;;15.30;9.98;;;;;;;;;;5071138;28;20028;-79
2023/10/12 08:27:24;;;;;;;15.13;9.82;;;;;;;;;;5069721;28;20016;-79
2023/10/12 08:32:27;;;;;;;15.18;9.63;;;;;;;;;;5078739;28;20024;-79
2023/10/12 08:35:32;;;;;;;15.75;10.48;;;;;;;;;;5049985;28;20024;-79
2023/10/12 08:38:11;;;;;;;12.32;9.00;;;;;;;;;;5063048;28;20035;-79
2023/10/12 08:40:30;;;;;;;14.38;9.18;;;;;;;;;;5066278;28;20388;-79
2023/10/12 08:42:55;;;;;;;15.32;10.23;;;;;;;;;;5042700;28;20021;-80
2023/10/12 08:45:24;;;;;;;15.57;9.10;;;;;;;;;;5053289;28;20044;-80
2023/10/12 08:47:50;;;;;;;13.43;9.68;;;;;;;;;;5064996;28;20407;-80
2023/10/12 08:52:50;;;;;;;14.85;8.68;;;;;;;;;;5072927;28;20146;-77
2023/10/12 08:55:19;;;;;;;17.02;9.90;;;;;;;;;;5054892;28;20431;-77
2023/10/12 08:57:55;;;;;;;14.88;9.25;;;;;;;;;;5050686;28;20024;-76
2023/10/12 09:03:08;;;;;;;14.35;8.27;;;;;;;;;;5066487;28;20035;-76
2023/10/12 09:05:35;;;;;;;11.77;7.95;;;;;;;;;;5064265;28;20532;-76
2023/10/12 09:10:49;;;;;;;9.75;6.80;;;;;;;;;;5071991;28;20114;-76
2023/10/12 09:13:28;;;;;;;11.50;7.57;;;;;;;;;;5069538;28;20472;-76
2023/10/12 09:15:59;;;;;;;12.23;7.85;;;;;;;;;;5063888;28;20086;-76
2023/10/12 09:18:29;;;;;;;14.30;7.88;;;;;;;;;;5069399;28;20021;-76
2023/10/12 09:23:31;;;;;;;13.88;8.00;;;;;;;;;;5081094;28;20106;-85
2023/10/12 09:26:11;;;;;;;15.98;8.77;;;;;;;;;;5068579;28;20495;-85
2023/10/12 09:28:53;;;;;;;13.25;8.45;;;;;;;;;;5065599;28;20029;-85
2023/10/12 09:36:28;;;;;;;14.65;8.40;;;;;;;;;;5064919;28;20084;-78
2023/10/12 09:38:57;;;;;;;12.95;8.40;;;;;;;;;;5068542;28;20024;-78
2023/10/12 09:41:28;;;;;;;12.27;7.70;;;;;;;;;;5070544;28;20094;-78
2023/10/12 09:43:56;;;;;;;15.63;8.85;;;;;;;;;;5054040;28;20071;-78
2023/10/12 09:46:27;;;;;;;14.32;7.95;;;;;;;;;;5062408;28;20029;-78
2023/10/12 09:49:14;;;;;;;16.13;8.52;;;;;;;;;;5069793;28;20541;-78
2023/10/12 09:51:45;;;;;;;12.70;8.00;;;;;;;;;;5072030;28;20035;-78
2023/10/12 09:54:18;;;;;;;10.32;6.30;;;;;;;;;;5043997;28;20516;-78
2023/10/12 09:56:57;;;;;;;12.40;7.65;;;;;;;;;;5057167;28;20032;-78
2023/10/12 09:59:23;;;;;;;15.85;9.30;;;;;;;;;;5065874;28;20024;-78
2023/10/12 10:01:50;;;;;;;14.88;8.93;;;;;;;;;;5056978;28;20071;-84
2023/10/12 10:07:25;;;;;;;12.70;8.43;;;;;;;;;;5067471;28;20110;-83
2023/10/12 10:09:54;;;;;;;9.98;6.95;;;;;;;;;;5068506;28;20021;-83
2023/10/12 10:12:22;;;;;;;11.85;7.88;;;;;;;;;;5071829;28;20031;-83
2023/10/12 10:15:11;;;;;;;10.15;6.63;;;;;;;;;;5067275;28;20540;-83
2023/10/12 10:17:46;;;;;;;13.27;8.18;;;;;;;;;;5069428;28;20464;-83
2023/10/12 10:22:58;;;;;;;14.13;9.23;;;;;;;;;;5075340;28;20085;-84
2023/10/12 10:25:35;;;;;;;14.32;7.88;;;;;;;;;;5064798;28;20487;-84
2023/10/12 10:28:07;;;;;;;12.20;7.50;;;;;;;;;;5064261;28;20024;-84
2023/10/12 10:30:40;;;;;;;14.10;8.57;;;;;;;;;;5062767;28;20074;-83
2023/10/12 10:33:13;;;;;;;12.20;7.75;;;;;;;;;;5067639;28;20284;-85
2023/10/12 10:36:04;;;;;;;16.48;10.23;;;;;;;;;;5068251;28;20056;-84
2023/10/12 10:38:33;;;;;;;11.40;7.47;;;;;;;;;;5069178;28;20102;-84
2023/10/12 10:41:07;;;;;;;10.85;7.50;;;;;;;;;;5066006;28;20032;-84
2023/10/12 10:43:39;;;;;;;15.43;7.55;;;;;;;;;;5069945;28;20111;-84
2023/10/12 10:46:11;;;;;;;13.60;7.10;;;;;;;;;;5049109;28;20480;-83
2023/10/12 10:48:40;;;;;;;12.43;7.10;;;;;;;;;;5075126;28;20020;-83
2023/10/12 10:51:18;;;;;;;11.30;6.72;;;;;;;;;;5062784;28;20106;-84
2023/10/12 10:53:55;;;;;;;11.20;7.53;;;;;;;;;;5074597;28;20028;-83
2023/10/12 10:56:37;;;;;;;10.90;7.80;;;;;;;;;;5064705;28;20112;-84
2023/10/12 10:59:12;;;;;;;10.93;7.80;;;;;;;;;;5056550;28;20058;-84
2023/10/12 11:01:41;;;;;;;15.98;11.63;;;;;;;;;;5071817;28;20039;-84
2023/10/12 11:04:17;;;;;;;14.27;8.93;;;;;;;;;;5052110;28;20070;-84
2023/10/12 11:06:43;;;;;;;15.02;10.15;;;;;;;;;;5065933;28;20021;-84
2023/10/12 11:09:13;;;;;;;12.07;7.78;;;;;;;;;;5070128;28;20030;-84
2023/10/12 11:11:44;;;;;;;13.73;8.10;;;;;;;;;;5068125;28;20026;-78
2023/10/12 11:14:12;;;;;;;12.57;7.90;;;;;;;;;;5069643;28;20024;-78
2023/10/12 11:16:37;;;;;;;16.08;10.88;;;;;;;;;;5074706;28;20024;-78
2023/10/12 11:19:08;;;;;;;13.32;9.13;;;;;;;;;;5052497;28;20557;-78
2023/10/12 11:21:33;;;;;;;21.15;11.63;;;;;;;;;;5076800;28;20052;-78
2023/10/12 11:24:03;;;;;;;15.77;9.05;;;;;;;;;;5072575;28;20102;-78
2023/10/12 11:26:38;;;;;;;16.08;9.63;;;;;;;;;;5070936;28;20460;-78
2023/10/12 11:29:06;;;;;;;11.43;8.50;;;;;;;;;;5055193;28;20028;-78
2023/10/12 11:31:36;;;;;;;14.05;8.25;;;;;;;;;;5073482;28;20028;-78
2023/10/12 11:34:11;;;;;;;12.50;8.00;;;;;;;;;;5054264;28;20035;-78
2023/10/12 11:36:37;;;;;;;14.60;7.78;;;;;;;;;;5066624;28;20486;-78
2023/10/12 11:39:16;;;;;;;13.27;9.02;;;;;;;;;;5071325;28;20032;-79
2023/10/12 11:42:01;;;;;;;14.80;8.15;;;;;;;;;;5055518;28;20051;-79
2023/10/12 11:44:36;;;;;;;16.48;8.60;;;;;;;;;;5065388;28;20117;-78
2023/10/12 11:47:06;;;;;;;10.45;7.38;;;;;;;;;;5063276;28;20085;-78
2023/10/12 11:49:49;;;;;;;17.67;9.48;;;;;;;;;;5059508;28;20025;-79
2023/10/12 11:52:21;;;;;;;16.23;9.18;;;;;;;;;;5068190;28;20024;-78
2023/10/12 11:54:48;;;;;;;13.13;8.13;;;;;;;;;;5057793;28;20033;-78
2023/10/12 11:57:13;;;;;;;13.43;8.60;;;;;;;;;;5067614;28;20054;-78
2023/10/12 11:59:39;;;;;;;13.13;8.10;;;;;;;;;;5047833;28;20098;-78
2023/10/12 12:02:09;;;;;;;12.88;7.75;;;;;;;;;;5049484;28;20052;-78
2023/10/12 12:04:40;;;;;;;13.80;7.93;;;;;;;;;;5047294;28;20119;-78
2023/10/12 12:07:10;;;;;;;11.75;7.22;;;;;;;;;;5057243;28;20036;-78
2023/10/12 12:09:48;;;;;;;15.13;9.55;;;;;;;;;;5070009;28;20035;-78
2023/10/12 12:12:16;;;;;;;12.55;8.00;;;;;;;;;;5047318;28;20028;-79
2023/10/12 12:14:48;;;;;;;14.18;7.55;;;;;;;;;;5070777;28;20055;-78
2023/10/12 12:17:17;;;;;;;11.68;6.90;;;;;;;;;;5051507;28;20024;-78
2023/10/12 12:19:42;;;;;;;19.88;10.27;;;;;;;;;;5063740;28;20036;-78
2023/10/12 12:22:13;;;;;;;14.10;7.70;;;;;;;;;;5055398;28;20400;-78
2023/10/12 12:24:41;;;;;;;10.45;7.10;;;;;;;;;;5048781;28;20021;-78
2023/10/12 12:27:22;;;;;;;15.73;9.05;;;;;;;;;;5069841;28;22203;-78
2023/10/12 12:29:48;;;;;;;12.65;8.65;;;;;;;;;;5068036;28;20029;-78
2023/10/12 12:32:13;;;;;;;14.73;8.10;;;;;;;;;;5069487;28;20032;-78
2023/10/12 12:34:38;;;;;;;14.65;9.30;;;;;;;;;;5069341;28;20024;-78
2023/10/12 12:37:10;;;;;;;11.63;7.82;;;;;;;;;;5080025;28;20024;-78
2023/10/12 12:39:35;;;;;;;11.98;8.48;;;;;;;;;;5065938;28;20031;-78
2023/10/12 12:42:02;;;;;;;12.77;9.15;;;;;;;;;;5072999;28;20028;-78
2023/10/12 12:44:28;;;;;;;13.02;9.05;;;;;;;;;;5075284;28;20032;-78
2023/10/12 12:46:54;;;;;;;14.38;9.13;;;;;;;;;;5070969;28;20027;-78
2023/10/12 12:49:21;;;;;;;14.65;8.23;;;;;;;;;;5070279;28;20044;-78
2023/10/12 12:51:46;;;;;;;14.13;8.90;;;;;;;;;;5065444;28;20026;-78
2023/10/12 12:54:11;;;;;;;16.13;9.00;;;;;;;;;;5081266;28;20031;-78
2023/10/12 12:56:37;;;;;;;14.80;9.23;;;;;;;;;;5080521;28;20027;-78
2023/10/12 12:59:04;;;;;;;12.63;8.90;;;;;;;;;;5057889;28;20032;-78
2023/10/12 13:01:31;;;;;;;15.07;9.57;;;;;;;;;;5056847;28;20391;-78
2023/10/12 13:03:56;;;;;;;14.95;8.75;;;;;;;;;;5075175;28;20158;-78
2023/10/12 13:06:22;;;;;;;13.55;8.90;;;;;;;;;;5072612;28;20447;-78
2023/10/12 13:08:48;;;;;;;16.00;9.07;;;;;;;;;;5063994;28;20040;-78
2023/10/12 13:11:21;;;;;;;15.98;8.80;;;;;;;;;;5052281;28;20070;-78
2023/10/12 13:13:47;;;;;;;13.35;8.70;;;;;;;;;;5065980;28;20036;-78
2023/10/12 13:16:13;;;;;;;13.88;8.82;;;;;;;;;;5070720;28;20081;-78
2023/10/12 13:18:48;;;;;;;14.57;8.13;;;;;;;;;;5046167;28;20024;-78
2023/10/12 13:21:15;;;;;;;14.25;8.63;;;;;;;;;;5063553;28;20043;-78
2023/10/12 13:23:42;;;;;;;15.25;8.25;;;;;;;;;;5050244;28;20023;-78
2023/10/12 13:26:19;;;;;;;14.55;8.63;;;;;;;;;;5048808;28;20033;-78
2023/10/12 13:28:44;;;;;;;15.73;8.30;;;;;;;;;;5069371;28;20429;-77
2023/10/12 13:31:13;;;;;;;14.20;8.38;;;;;;;;;;5052508;28;20116;-75
2023/10/12 13:33:41;;;;;;;14.88;7.78;;;;;;;;;;5062857;28;20024;-76
2023/10/12 13:36:08;;;;;;;12.15;7.78;;;;;;;;;;5065236;28;20072;-76
2023/10/12 13:38:36;;;;;;;11.25;6.80;;;;;;;;;;5070619;28;20016;-75
2023/10/12 13:41:02;;;;;;;11.18;7.45;;;;;;;;;;5068891;28;20074;-79
2023/10/12 13:43:30;;;;;;;19.80;8.40;;;;;;;;;;5075169;28;20051;-79
2023/10/12 13:45:57;;;;;;;12.75;7.20;;;;;;;;;;5067193;28;20473;-79
2023/10/12 13:48:25;;;;;;;11.02;7.03;;;;;;;;;;5073391;28;20028;-78
2023/10/12 13:51:04;;;;;;;9.70;6.40;;;;;;;;;;5064187;28;20095;-78
2023/10/12 13:53:36;;;;;;;12.00;7.30;;;;;;;;;;5050932;28;20021;-78
2023/10/12 13:56:04;;;;;;;15.23;7.93;;;;;;;;;;5065010;28;20035;-78
2023/10/12 13:58:32;;;;;;;13.68;8.45;;;;;;;;;;5071635;28;20551;-78
2023/10/12 14:01:02;;;;;;;15.10;8.07;;;;;;;;;;5060519;28;20079;-79
2023/10/12 14:03:34;;;;;;;10.02;6.93;;;;;;;;;;5065175;28;20031;-78
2023/10/12 14:06:01;;;;;;;16.58;8.23;;;;;;;;;;5054401;28;20545;-78
2023/10/12 14:08:28;;;;;;;10.13;6.63;;;;;;;;;;5065121;28;20032;-86
2023/10/12 14:10:54;;;;;;;11.43;6.57;;;;;;;;;;5049004;28;20035;-86
2023/10/12 14:13:20;;;;;;;11.63;6.45;;;;;;;;;;5051277;28;20525;-86
2023/10/12 14:15:47;;;;;;;13.80;7.80;;;;;;;;;;5049436;28;20029;-83
2023/10/12 14:18:16;;;;;;;14.93;8.23;;;;;;;;;;5066953;28;20024;-84
2023/10/12 14:20:42;;;;;;;19.02;8.38;;;;;;;;;;5064333;28;20084;-86
2023/10/12 14:23:08;;;;;;;12.45;8.25;;;;;;;;;;5066421;28;20029;-86
2023/10/12 14:25:35;;;;;;;17.38;8.70;;;;;;;;;;5046849;28;20478;-87
2023/10/12 14:28:06;;;;;;;15.52;9.02;;;;;;;;;;5065766;28;20064;-86
2023/10/12 14:30:36;;;;;;;14.82;8.82;;;;;;;;;;5068029;28;20028;-79
2023/10/12 14:33:03;;;;;;;13.98;8.45;;;;;;;;;;5066688;28;20033;-79
2023/10/12 14:35:30;;;;;;;10.93;6.95;;;;;;;;;;5064179;28;20035;-79
2023/10/12 14:37:56;;;;;;;16.38;8.88;;;;;;;;;;5070737;28;20029;-79
2023/10/12 14:40:29;;;;;;;13.23;7.47;;;;;;;;;;5073612;28;20024;-79
2023/10/12 14:43:05;;;;;;;11.40;6.85;;;;;;;;;;5072723;28;20027;-78
2023/10/12 14:45:33;;;;;;;10.95;7.53;;;;;;;;;;5063469;28;20504;-79
2023/10/12 14:47:59;;;;;;;11.70;6.30;;;;;;;;;;5065819;28;20041;-79
2023/10/12 14:50:24;;;;;;;10.07;7.85;;;;;;;;;;5054473;28;20029;-75
2023/10/12 14:52:53;;;;;;;9.88;6.63;;;;;;;;;;5051902;28;20547;-76
2023/10/12 14:55:20;;;;;;;9.82;6.10;;;;;;;;;;5069851;28;20051;-77
2023/10/12 14:57:49;;;;;;;11.45;6.22;;;;;;;;;;5060667;28;20110;-74
2023/10/12 15:00:22;;;;;;;10.93;6.63;;;;;;;;;;5053374;28;20090;-75
2023/10/12 15:02:56;;;;;;;9.32;6.22;;;;;;;;;;5048009;28;20027;-75
2023/10/12 15:05:25;;;;;;;8.70;6.05;;;;;;;;;;5061871;28;20043;-77
2023/10/12 15:07:52;;;;;;;12.60;6.80;;;;;;;;;;5067512;28;20027;-75
2023/10/12 15:10:18;;;;;;;10.13;7.13;;;;;;;;;;5053876;28;20479;-75
2023/10/12 15:12:45;;;;;;;11.13;6.57;;;;;;;;;;5065841;28;20033;-75
2023/10/12 15:15:15;;;;;;;12.98;7.35;;;;;;;;;;5070620;28;20032;-76
2023/10/12 15:17:40;;;;;;;11.77;8.00;;;;;;;;;;5050583;28;20021;-75
2023/10/12 15:20:08;;;;;;;11.65;7.05;;;;;;;;;;5047244;28;20024;-77
2023/10/12 15:22:33;;;;;;;9.32;6.53;;;;;;;;;;5041392;28;20028;-78
2023/10/12 15:25:00;;;;;;;14.60;7.28;;;;;;;;;;5040711;28;20040;-77
2023/10/12 15:27:25;;;;;;;9.95;6.63;;;;;;;;;;5061642;28;20034;-76
2023/10/12 15:29:51;;;;;;;9.90;6.25;;;;;;;;;;5047906;28;20024;-78
2023/10/12 15:32:17;;;;;;;14.00;8.13;;;;;;;;;;5062551;28;20024;-76
2023/10/12 15:34:44;;;;;;;11.80;6.88;;;;;;;;;;5060558;28;20036;-78
2023/10/12 15:37:09;;;;;;;10.55;6.13;;;;;;;;;;5063685;28;20059;-76
2023/10/12 15:39:37;;;;;;;10.90;6.28;;;;;;;;;;5042290;28;20052;-77
2023/10/12 15:42:02;;;;;;;9.27;6.43;;;;;;;;;;5045712;28;20021;-77
2023/10/12 15:44:28;;;;;;;10.45;6.43;;;;;;;;;;5062018;28;20017;-76
2023/10/12 15:46:54;;;;;;;10.75;6.10;;;;;;;;;;5053609;28;20070;-77
2023/10/12 15:49:19;;;;;;;10.10;6.85;;;;;;;;;;5058071;28;20086;-78
2023/10/12 15:51:45;;;;;;;12.70;7.43;;;;;;;;;;5057731;28;20036;-77
2023/10/12 15:54:12;;;;;;;13.07;7.20;;;;;;;;;;5040816;28;20031;-79
2023/10/12 15:56:38;;;;;;;12.10;6.97;;;;;;;;;;5060925;28;20028;-78
2023/10/12 15:59:04;;;;;;;12.45;6.90;;;;;;;;;;5045326;28;20115;-78
2023/10/12 16:01:31;;;;;;;12.63;7.78;;;;;;;;;;5065784;28;20460;-78
2023/10/12 16:03:59;;;;;;;9.45;7.43;;;;;;;;;;5059554;28;20111;-78
2023/10/12 16:06:25;;;;;;;10.88;7.28;;;;;;;;;;5057650;28;20032;-79
2023/10/12 16:08:52;;;;;;;12.00;7.32;;;;;;;;;;5065256;28;20373;-79
2023/10/12 16:11:18;;;;;;;10.88;7.45;;;;;;;;;;5060087;28;20091;-78
2023/10/12 16:13:45;;;;;;;10.93;7.07;;;;;;;;;;5058175;28;20032;-78
2023/10/12 16:16:11;;;;;;;13.25;7.18;;;;;;;;;;5058894;28;20077;-78
2023/10/12 16:18:40;;;;;;;10.30;7.22;;;;;;;;;;5038244;28;20047;-79
2023/10/12 16:21:16;;;;;;;11.35;8.32;;;;;;;;;;5047485;28;20469;-78
2023/10/12 16:23:42;;;;;;;12.05;7.63;;;;;;;;;;5061915;28;20384;-79
2023/10/12 16:26:12;;;;;;;10.30;7.57;;;;;;;;;;5061830;28;20352;-79
2023/10/12 16:28:40;;;;;;;11.18;7.35;;;;;;;;;;5062369;28;20031;-79
2023/10/12 16:31:09;;;;;;;13.65;9.07;;;;;;;;;;5049327;28;20499;-79
2023/10/12 16:33:35;;;;;;;12.70;8.68;;;;;;;;;;5059115;28;20452;-79
2023/10/12 16:36:06;;;;;;;10.15;8.05;;;;;;;;;;5059932;28;20040;-79